Anaktuvuk Pass, Alaska
Current Conditions -  °F | °C
As of 1:53 PM on Monday 22 Dec 2014 (Local Time) from PABT Reporting Station
Light Snow Light Snow  
Wind Chill: -13°   Ceiling: 3000
Heat Index: -13°   Visibility: 3mi
Dew Point: -16°   Wind: 0mph
Humidity: 80%   Direction: NA
Pressure: 29.88"   Gusts: NA
Location:  68.14°N, 151.74°W
Report Text: PABT 222253Z 00000KT 3SM -SN BR OVC030 M13/M16 A2988 RMK AO2 SLP140 T11331161
Loading
Personal Weather Stations






























Interactive Weather Map New forecast layout! Learn more

10-Day Weather Forecast

Advertisements
Track Severe Weather on mobile